Time;durP1;ratioP1;P1;durP2;ratioP2;P2;SDS_P1;SDS_P2;PMS_P1;PMS_P2;Temp;Humidity;BMP_temperature;BMP_pressure;BME280_temperature;BME280_humidity;BME280_pressure;Samples;Min_cycle;Max_cycle;Signal;HPM_P1;HPM_P2
2022/05/16 00:00:28;;;;;;;3.08;1.55;;;19.50;56.70;;;;;;5036639;28;20021;-61
2022/05/16 00:02:55;;;;;;;4.95;1.55;;;19.50;56.50;;;;;;5048868;28;20030;-60
2022/05/16 00:05:22;;;;;;;6.13;2.20;;;19.40;56.50;;;;;;5030963;28;20028;-60
2022/05/16 00:07:48;;;;;;;7.05;1.85;;;19.40;56.40;;;;;;5033420;28;20017;-61
2022/05/16 00:10:14;;;;;;;4.80;1.33;;;19.40;56.70;;;;;;5028169;28;20032;-60
2022/05/16 00:12:39;;;;;;;5.03;1.50;;;19.30;56.60;;;;;;5033644;28;20021;-60
2022/05/16 00:15:08;;;;;;;5.53;1.27;;;19.40;56.60;;;;;;5033416;28;20048;-60
2022/05/16 00:17:34;;;;;;;5.40;1.65;;;19.30;56.60;;;;;;5028298;28;20064;-60
2022/05/16 00:19:59;;;;;;;4.82;1.23;;;19.30;56.90;;;;;;5030340;28;20485;-61
2022/05/16 00:22:27;;;;;;;5.45;1.63;;;19.30;56.90;;;;;;5048319;28;20021;-61
2022/05/16 00:24:53;;;;;;;4.45;1.42;;;19.30;57.10;;;;;;5032221;28;20033;-60
2022/05/16 00:27:18;;;;;;;5.60;1.95;;;19.20;57.40;;;;;;5037872;28;20022;-61
2022/05/16 00:29:44;;;;;;;3.92;1.50;;;19.10;57.70;;;;;;5036559;28;20389;-60
2022/05/16 00:32:09;;;;;;;6.07;1.60;;;19.10;57.70;;;;;;5047179;28;20029;-61
2022/05/16 00:34:36;;;;;;;6.47;1.90;;;19.10;57.90;;;;;;5032290;28;20052;-60
2022/05/16 00:37:02;;;;;;;6.30;1.60;;;19.10;58.00;;;;;;5035742;28;20469;-60
2022/05/16 00:39:28;;;;;;;6.13;1.73;;;19.10;58.00;;;;;;5037346;28;20039;-61
2022/05/16 00:41:54;;;;;;;4.70;1.50;;;19.00;57.90;;;;;;5034623;28;20025;-60
2022/05/16 00:44:21;;;;;;;3.90;1.20;;;19.00;58.00;;;;;;5033025;28;20120;-60
2022/05/16 00:46:48;;;;;;;7.05;1.83;;;19.00;58.10;;;;;;5034449;28;20017;-60
2022/05/16 00:49:27;;;;;;;8.98;1.88;;;18.90;58.20;;;;;;5034299;28;20053;-60
2022/05/16 00:52:00;;;;;;;5.10;1.63;;;18.90;58.60;;;;;;5034118;28;20048;-60
2022/05/16 00:54:36;;;;;;;6.07;1.52;;;18.90;58.60;;;;;;5033354;28;20071;-60
2022/05/16 00:57:05;;;;;;;7.55;2.10;;;18.80;58.70;;;;;;5034305;28;20018;-60
2022/05/16 00:59:50;;;;;;;4.82;1.55;;;18.80;59.00;;;;;;5034544;28;20513;-60
2022/05/16 01:05:04;;;;;;;3.53;1.50;;;18.70;59.30;;;;;;5036940;28;20121;-60
2022/05/16 01:07:32;;;;;;;9.77;2.33;;;18.70;59.30;;;;;;5039295;28;20026;-60
2022/05/16 01:09:58;;;;;;;4.10;1.23;;;18.70;59.30;;;;;;5045853;28;20024;-60
2022/05/16 01:12:31;;;;;;;3.30;1.45;;;18.70;59.30;;;;;;5046163;28;20389;-60
2022/05/16 01:14:57;;;;;;;4.13;1.50;;;18.70;59.50;;;;;;5040862;28;20025;-60
2022/05/16 01:17:24;;;;;;;3.60;1.42;;;18.60;59.50;;;;;;5031105;28;20029;-61
2022/05/16 01:19:50;;;;;;;4.10;1.50;;;18.60;59.50;;;;;;5043410;28;20409;-61
2022/05/16 01:22:32;;;;;;;4.07;1.20;;;18.60;59.60;;;;;;5030989;28;20022;-60
2022/05/16 01:25:04;;;;;;;5.15;1.50;;;18.60;59.50;;;;;;5031148;28;20021;-60
2022/05/16 01:27:43;;;;;;;3.72;1.85;;;18.50;59.80;;;;;;5034029;28;20013;-60
2022/05/16 01:30:10;;;;;;;3.87;1.50;;;18.50;59.80;;;;;;5043357;28;20563;-61
2022/05/16 01:32:35;;;;;;;2.75;1.27;;;18.40;59.90;;;;;;5030627;28;20489;-60
2022/05/16 01:35:01;;;;;;;4.10;1.30;;;18.40;60.00;;;;;;5036661;28;20032;-60
2022/05/16 01:38:18;;;;;;;4.30;1.60;;;18.40;60.10;;;;;;5036266;28;20044;-60
2022/05/16 01:40:12;;;;;;;5.18;1.35;;;18.40;60.30;;;;;;5036009;28;20404;-60
2022/05/16 01:42:37;;;;;;;4.00;1.23;;;18.30;60.30;;;;;;5029290;28;20021;-60
2022/05/16 01:45:03;;;;;;;2.85;1.38;;;18.20;60.40;;;;;;5045651;28;20014;-60
2022/05/16 01:47:29;;;;;;;4.82;2.00;;;18.30;60.60;;;;;;5033101;28;20171;-60
2022/05/16 01:49:54;;;;;;;4.82;1.92;;;18.20;60.90;;;;;;5035880;28;20026;-60
2022/05/16 01:52:20;;;;;;;6.40;2.17;;;18.10;61.10;;;;;;5038375;28;20059;-60
2022/05/16 01:54:45;;;;;;;5.93;2.10;;;18.10;61.40;;;;;;5030473;28;20432;-60
2022/05/16 01:57:11;;;;;;;5.97;1.98;;;18.10;61.60;;;;;;5038353;28;20033;-60
2022/05/16 01:59:36;;;;;;;4.15;1.58;;;18.00;61.60;;;;;;5036895;28;20033;-61
2022/05/16 02:02:02;;;;;;;6.00;2.38;;;18.00;61.70;;;;;;5031713;28;20386;-60
2022/05/16 02:04:27;;;;;;;3.85;1.55;;;18.00;62.00;;;;;;5030276;28;20049;-60
2022/05/16 02:06:53;;;;;;;4.38;2.00;;;17.90;62.30;;;;;;5038236;28;20048;-60
2022/05/16 02:09:18;;;;;;;7.63;1.90;;;17.90;62.30;;;;;;5033151;28;20057;-60
2022/05/16 02:11:44;;;;;;;5.65;1.98;;;17.80;62.40;;;;;;5030119;28;20485;-60
2022/05/16 02:14:09;;;;;;;2.83;1.60;;;17.80;62.60;;;;;;5053311;28;20155;-60
2022/05/16 02:16:35;;;;;;;5.22;2.10;;;17.80;62.60;;;;;;5030358;28;20070;-60
2022/05/16 02:19:00;;;;;;;4.15;1.88;;;17.80;62.90;;;;;;5032715;28;20367;-60
2022/05/16 02:26:54;;;;;;;5.22;1.85;;;17.60;63.50;;;;;;5033836;28;20076;-60
2022/05/16 02:29:19;;;;;;;4.63;1.42;;;17.60;63.50;;;;;;5034241;28;20254;-60
2022/05/16 02:31:46;;;;;;;4.90;1.55;;;17.50;63.50;;;;;;5032313;28;20021;-60
2022/05/16 02:34:11;;;;;;;4.10;1.65;;;17.50;63.50;;;;;;5029837;28;20112;-60
2022/05/16 02:36:37;;;;;;;2.95;1.55;;;17.50;63.50;;;;;;5032629;28;20029;-60
2022/05/16 02:39:03;;;;;;;3.33;1.55;;;17.50;63.60;;;;;;5034259;28;20481;-60
2022/05/16 02:41:28;;;;;;;3.20;1.50;;;17.50;63.70;;;;;;5044712;28;20071;-60
2022/05/16 02:43:54;;;;;;;5.05;1.80;;;17.50;63.90;;;;;;5032126;28;20108;-60
2022/05/16 02:46:19;;;;;;;3.97;1.52;;;17.40;63.90;;;;;;5029415;28;20025;-60
2022/05/16 02:48:45;;;;;;;7.22;2.38;;;17.40;64.10;;;;;;5032117;28;20024;-60
2022/05/16 02:51:10;;;;;;;6.25;2.97;;;17.40;64.50;;;;;;5052799;28;20050;-60
2022/05/16 02:53:36;;;;;;;9.43;2.42;;;17.30;64.80;;;;;;5034579;28;20037;-60
2022/05/16 02:56:02;;;;;;;4.03;1.80;;;17.30;65.10;;;;;;5034276;28;20108;-60
2022/05/16 02:58:27;;;;;;;4.97;1.80;;;17.20;65.10;;;;;;5032323;28;20489;-60
2022/05/16 03:00:53;;;;;;;4.38;1.88;;;17.20;65.10;;;;;;5031692;28;20025;-61
2022/05/16 03:03:19;;;;;;;7.18;1.80;;;17.10;65.10;;;;;;5030702;28;20481;-60
2022/05/16 03:05:44;;;;;;;5.82;2.03;;;17.10;65.00;;;;;;5041235;28;20029;-60
2022/05/16 03:08:10;;;;;;;3.90;1.52;;;17.10;65.10;;;;;;5036596;28;20017;-60
2022/05/16 03:10:36;;;;;;;5.35;2.47;;;17.00;65.10;;;;;;5034582;28;20024;-60
2022/05/16 03:13:02;;;;;;;5.07;2.05;;;17.00;65.50;;;;;;5034709;28;20033;-60
2022/05/16 03:15:30;;;;;;;5.07;1.85;;;16.90;65.60;;;;;;5029064;28;20436;-60
2022/05/16 03:17:55;;;;;;;4.75;1.63;;;16.90;65.80;;;;;;5032848;28;20025;-60
2022/05/16 03:20:21;;;;;;;4.55;1.80;;;16.90;65.90;;;;;;5035969;28;20021;-60
2022/05/16 03:22:47;;;;;;;3.58;1.67;;;16.80;65.90;;;;;;5031605;28;20036;-60
2022/05/16 03:25:13;;;;;;;4.32;1.50;;;16.80;66.00;;;;;;5032031;28;20028;-61
2022/05/16 03:27:39;;;;;;;4.10;1.92;;;16.80;66.10;;;;;;5035405;28;20560;-60
2022/05/16 03:30:07;;;;;;;4.05;1.67;;;16.70;66.80;;;;;;5033317;28;20370;-60
2022/05/16 03:32:33;;;;;;;3.53;1.50;;;16.70;66.10;;;;;;5032352;28;20025;-60
2022/05/16 03:34:58;;;;;;;4.22;1.60;;;16.70;66.10;;;;;;5032970;28;20424;-60
2022/05/16 03:37:24;;;;;;;4.22;1.70;;;16.70;66.10;;;;;;5031497;28;20040;-60
2022/05/16 03:42:34;;;;;;;6.45;2.35;;;16.70;66.30;;;;;;5039276;28;20032;-60
2022/05/16 03:45:22;;;;;;;4.90;2.05;;;16.60;66.20;;;;;;5032701;28;20026;-60
2022/05/16 03:47:47;;;;;;;4.35;1.58;;;16.60;66.30;;;;;;5034992;28;20024;-60
2022/05/16 03:50:14;;;;;;;3.40;1.60;;;16.50;66.50;;;;;;5037596;28;20412;-60
2022/05/16 03:52:40;;;;;;;4.57;1.58;;;16.50;66.50;;;;;;5030733;28;20064;-60
2022/05/16 03:55:08;;;;;;;3.15;1.83;;;16.50;66.60;;;;;;5031081;28;20036;-60
2022/05/16 03:57:34;;;;;;;4.85;1.80;;;16.50;66.70;;;;;;5040574;28;20032;-60
2022/05/16 03:59:59;;;;;;;3.22;1.30;;;16.40;66.70;;;;;;5030729;28;20468;-60
2022/05/16 04:02:25;;;;;;;4.45;2.33;;;16.40;66.80;;;;;;5032239;28;20036;-60
2022/05/16 04:04:50;;;;;;;3.72;1.70;;;16.40;67.00;;;;;;5039041;28;20025;-60
2022/05/16 04:07:16;;;;;;;3.92;1.75;;;16.30;67.10;;;;;;5033770;28;20025;-60
2022/05/16 04:09:42;;;;;;;3.08;1.70;;;16.40;67.20;;;;;;5026863;28;20034;-60
2022/05/16 04:12:08;;;;;;;5.10;1.85;;;16.30;67.20;;;;;;5037579;28;20373;-60
2022/05/16 04:14:34;;;;;;;4.70;2.58;;;16.30;67.40;;;;;;5031081;28;20022;-60
2022/05/16 04:16:59;;;;;;;3.60;1.65;;;16.30;67.40;;;;;;5031038;28;20493;-60
2022/05/16 04:19:25;;;;;;;4.53;1.80;;;16.30;67.40;;;;;;5030998;28;20032;-60
2022/05/16 04:21:51;;;;;;;3.28;1.60;;;16.30;67.50;;;;;;5033384;28;20528;-60
2022/05/16 04:24:17;;;;;;;4.57;1.70;;;16.40;67.50;;;;;;5035542;28;20035;-60
2022/05/16 04:26:43;;;;;;;3.40;1.35;;;16.40;67.50;;;;;;5032420;28;20022;-60
2022/05/16 04:29:08;;;;;;;4.13;1.90;;;16.40;67.50;;;;;;5033059;28;20504;-60
2022/05/16 04:31:34;;;;;;;4.38;1.20;;;16.40;67.60;;;;;;5031377;28;20014;-60
2022/05/16 04:34:00;;;;;;;3.05;1.60;;;16.40;67.60;;;;;;5030122;28;20366;-60
2022/05/16 04:36:25;;;;;;;3.22;1.60;;;16.50;67.60;;;;;;5040158;28;20481;-60
2022/05/16 04:38:51;;;;;;;3.97;1.42;;;16.50;67.70;;;;;;5043658;28;20094;-60
2022/05/16 04:44:00;;;;;;;5.38;1.75;;;16.50;68.00;;;;;;5028168;28;20445;-60
2022/05/16 04:46:26;;;;;;;2.63;1.65;;;16.50;68.20;;;;;;5038965;28;20033;-60
2022/05/16 04:48:52;;;;;;;4.93;1.63;;;16.60;68.30;;;;;;5030723;28;20067;-60
2022/05/16 04:51:17;;;;;;;6.00;1.83;;;16.60;68.20;;;;;;5030520;28;20053;-60
2022/05/16 04:53:43;;;;;;;5.68;2.72;;;16.70;68.70;;;;;;5046939;28;20029;-60
2022/05/16 04:56:09;;;;;;;3.78;1.88;;;16.70;68.80;;;;;;5031609;28;20095;-61
2022/05/16 04:58:35;;;;;;;8.75;2.28;;;16.80;68.70;;;;;;5031649;28;20032;-60
2022/05/16 05:01:01;;;;;;;5.68;2.15;;;16.80;69.30;;;;;;5031708;28;20033;-60
2022/05/16 05:03:27;;;;;;;6.55;2.60;;;16.90;69.20;;;;;;5031519;28;20401;-59
2022/05/16 05:05:53;;;;;;;6.30;2.38;;;16.90;69.90;;;;;;5030565;28;20026;-60
2022/05/16 05:08:18;;;;;;;3.92;2.13;;;16.90;69.90;;;;;;5046385;28;20044;-60
2022/05/16 05:16:15;;;;;;;10.88;2.90;;;17.00;70.00;;;;;;5035398;28;20044;-60
2022/05/16 05:18:42;;;;;;;10.18;2.75;;;17.10;70.20;;;;;;5050450;28;20384;-60
2022/05/16 05:21:08;;;;;;;5.38;2.92;;;17.10;70.00;;;;;;5035228;28;20030;-60
2022/05/16 05:23:34;;;;;;;6.63;3.17;;;17.20;70.30;;;;;;5034874;28;20033;-60
2022/05/16 05:26:00;;;;;;;8.32;2.53;;;17.20;70.50;;;;;;5035013;28;20465;-60
2022/05/16 05:28:26;;;;;;;5.93;3.60;;;17.20;70.10;;;;;;5033352;28;20033;-60
2022/05/16 05:30:52;;;;;;;6.45;3.00;;;17.20;70.20;;;;;;5038090;28;20429;-60
2022/05/16 05:33:17;;;;;;;13.60;3.38;;;17.30;70.60;;;;;;5039302;28;20118;-60
2022/05/16 05:35:43;;;;;;;7.57;3.20;;;17.30;70.60;;;;;;5040529;28;20025;-60
2022/05/16 05:38:09;;;;;;;7.47;3.58;;;17.30;70.50;;;;;;5035964;28;20064;-60
2022/05/16 05:40:37;;;;;;;7.55;3.15;;;17.30;70.30;;;;;;5050205;28;20022;-59
2022/05/16 05:43:07;;;;;;;8.30;3.40;;;17.40;70.50;;;;;;5034482;28;20107;-60
2022/05/16 05:45:34;;;;;;;5.35;3.17;;;17.40;70.40;;;;;;5034289;28;20025;-60
2022/05/16 05:48:01;;;;;;;7.32;3.05;;;17.50;70.30;;;;;;5034592;28;20025;-60
2022/05/16 05:50:27;;;;;;;8.00;2.95;;;17.60;69.90;;;;;;5034330;28;20489;-60
2022/05/16 05:52:53;;;;;;;6.50;2.60;;;17.70;70.00;;;;;;5034383;28;20040;-60
2022/05/16 05:55:19;;;;;;;7.25;2.85;;;17.80;70.00;;;;;;5034402;28;20026;-60
2022/05/16 05:57:44;;;;;;;8.32;3.95;;;17.90;70.00;;;;;;5033321;28;20029;-60
2022/05/16 06:00:13;;;;;;;8.75;4.22;;;18.00;70.10;;;;;;5034254;28;20496;-60
2022/05/16 06:02:40;;;;;;;9.02;3.97;;;18.10;70.00;;;;;;5034171;28;20025;-60
2022/05/16 06:05:11;;;;;;;7.78;3.17;;;18.10;69.70;;;;;;5034606;28;20021;-60
2022/05/16 06:07:37;;;;;;;7.03;3.22;;;18.20;69.40;;;;;;5034179;28;20032;-60
2022/05/16 06:10:04;;;;;;;5.85;3.70;;;18.20;69.30;;;;;;5034018;28;20021;-60
2022/05/16 06:12:30;;;;;;;8.27;3.55;;;18.20;69.00;;;;;;5034018;28;20288;-60
2022/05/16 06:14:56;;;;;;;10.32;4.30;;;18.20;69.10;;;;;;5034216;28;20033;-60
2022/05/16 06:17:21;;;;;;;7.63;3.42;;;18.30;69.10;;;;;;5034048;28;20444;-60
2022/05/16 06:19:48;;;;;;;8.52;3.42;;;18.30;69.10;;;;;;5042041;28;20074;-60
2022/05/16 06:22:13;;;;;;;6.68;3.30;;;18.50;70.00;;;;;;5052812;28;20074;-60
2022/05/16 06:27:23;;;;;;;6.15;3.15;;;18.60;70.30;;;;;;5052042;28;20035;-60
2022/05/16 06:29:48;;;;;;;6.95;3.03;;;18.70;69.60;;;;;;5049064;28;20096;-60
2022/05/16 06:32:14;;;;;;;7.32;3.80;;;18.70;69.60;;;;;;5050675;28;20031;-60
2022/05/16 06:34:39;;;;;;;6.32;3.80;;;18.70;70.00;;;;;;5048571;28;20033;-60
2022/05/16 06:37:05;;;;;;;7.40;3.72;;;18.70;69.20;;;;;;5048768;28;20113;-60
2022/05/16 06:39:31;;;;;;;9.50;4.57;;;18.70;70.10;;;;;;5046829;28;20041;-60
2022/05/16 06:41:56;;;;;;;5.75;3.08;;;18.80;70.10;;;;;;5050440;28;20013;-60
2022/05/16 06:44:22;;;;;;;6.63;3.97;;;18.80;70.30;;;;;;5051479;28;20052;-60
2022/05/16 06:46:48;;;;;;;9.80;3.63;;;18.80;70.90;;;;;;5051681;28;20064;-60
2022/05/16 06:49:14;;;;;;;8.20;4.60;;;18.90;70.80;;;;;;5051540;28;20013;-60
2022/05/16 06:51:40;;;;;;;7.55;3.58;;;18.90;70.00;;;;;;5046241;28;20045;-60
2022/05/16 06:54:06;;;;;;;6.13;3.88;;;18.90;70.60;;;;;;5048572;28;20027;-60
2022/05/16 06:56:32;;;;;;;5.97;3.90;;;18.90;70.00;;;;;;5051883;28;20044;-60
2022/05/16 06:58:58;;;;;;;8.20;4.10;;;18.90;70.20;;;;;;5051117;28;20258;-60
2022/05/16 07:01:24;;;;;;;7.85;3.83;;;18.90;69.60;;;;;;5053336;28;20111;-60
2022/05/16 07:03:50;;;;;;;5.38;3.42;;;18.90;69.60;;;;;;5045859;28;20076;-60
2022/05/16 07:06:15;;;;;;;10.77;5.18;;;19.00;70.60;;;;;;5032999;28;20487;-60
2022/05/16 07:08:41;;;;;;;8.68;4.13;;;19.00;69.00;;;;;;5032977;28;20676;-60
2022/05/16 07:11:08;;;;;;;7.15;4.38;;;19.10;69.40;;;;;;5040948;28;20115;-60
2022/05/16 07:13:34;;;;;;;6.95;4.38;;;19.10;69.70;;;;;;5046182;28;20370;-60
2022/05/16 07:16:00;;;;;;;6.18;4.30;;;19.20;69.90;;;;;;5032299;28;20022;-60
2022/05/16 07:18:27;;;;;;;8.02;4.07;;;19.30;68.80;;;;;;5032819;28;20040;-60
2022/05/16 07:20:53;;;;;;;9.85;4.32;;;19.30;69.00;;;;;;5032705;28;20027;-60
2022/05/16 07:23:19;;;;;;;8.35;4.97;;;19.40;68.30;;;;;;5032488;28;20029;-60
2022/05/16 07:28:29;;;;;;;10.27;5.18;;;19.70;69.80;;;;;;5034894;28;20133;-60
2022/05/16 07:30:55;;;;;;;9.77;5.05;;;19.80;69.20;;;;;;5052606;28;20107;-60
2022/05/16 07:33:20;;;;;;;8.25;5.75;;;19.90;69.20;;;;;;5067630;28;20484;-60
2022/05/16 07:35:52;;;;;;;10.73;5.45;;;20.00;67.00;;;;;;5063603;28;20400;-60
2022/05/16 07:38:23;;;;;;;9.75;5.28;;;20.10;67.60;;;;;;5051831;28;20146;-60
2022/05/16 07:40:49;;;;;;;11.25;5.03;;;20.10;68.10;;;;;;5051379;28;20374;-60
2022/05/16 07:43:16;;;;;;;9.25;5.15;;;20.20;67.30;;;;;;5050883;28;20024;-60
2022/05/16 07:45:42;;;;;;;11.52;5.38;;;20.20;68.30;;;;;;5051079;28;20436;-60
2022/05/16 07:48:07;;;;;;;9.00;5.90;;;20.30;68.40;;;;;;5052181;28;20047;-60
2022/05/16 07:50:38;;;;;;;10.23;5.82;;;20.40;68.60;;;;;;5050757;28;20503;-60
2022/05/16 07:53:11;;;;;;;10.50;5.63;;;20.50;67.70;;;;;;5051965;28;20039;-60
2022/05/16 07:55:44;;;;;;;9.82;5.43;;;20.50;67.60;;;;;;5050799;28;20051;-60
2022/05/16 07:58:09;;;;;;;9.90;6.25;;;20.60;66.40;;;;;;5049563;28;20473;-60
2022/05/16 08:00:35;;;;;;;8.48;6.10;;;20.70;66.40;;;;;;5050880;28;20116;-60
2022/05/16 08:03:02;;;;;;;7.47;5.72;;;20.80;66.10;;;;;;5045934;28;20459;-60
2022/05/16 08:05:28;;;;;;;9.13;5.38;;;20.90;66.60;;;;;;5015326;28;20032;-60
2022/05/16 08:10:39;;;;;;;8.52;6.28;;;21.10;66.40;;;;;;5031678;28;20084;-60
2022/05/16 08:13:08;;;;;;;6.18;4.80;;;21.20;65.40;;;;;;5031838;28;20392;-59
2022/05/16 08:15:36;;;;;;;7.13;4.77;;;21.20;65.10;;;;;;5030662;28;20108;-59
2022/05/16 08:18:05;;;;;;;10.98;5.88;;;21.30;65.30;;;;;;5037982;28;20755;-60
2022/05/16 08:20:32;;;;;;;9.52;6.70;;;21.40;65.90;;;;;;5045557;28;20021;-60
2022/05/16 08:22:58;;;;;;;10.77;6.13;;;21.40;65.90;;;;;;5046855;28;20075;-60
2022/05/16 08:25:24;;;;;;;7.82;5.63;;;21.40;66.00;;;;;;5051195;28;20032;-60
2022/05/16 08:27:50;;;;;;;14.40;6.45;;;21.40;66.40;;;;;;5051507;28;20025;-59
2022/05/16 08:30:18;;;;;;;9.50;5.97;;;21.30;66.70;;;;;;5050786;28;20035;-60
2022/05/16 08:32:44;;;;;;;9.02;6.53;;;21.30;65.90;;;;;;5049907;28;20454;-60
2022/05/16 08:35:11;;;;;;;8.65;5.32;;;21.30;66.20;;;;;;5050995;28;20107;-60
2022/05/16 08:40:23;;;;;;;11.45;5.72;;;21.40;66.10;;;;;;5052370;28;20071;-59
2022/05/16 08:42:58;;;;;;;15.43;7.20;;;21.50;66.50;;;;;;5051482;28;20060;-59
2022/05/16 08:45:34;;;;;;;11.02;6.65;;;21.50;66.20;;;;;;5052036;28;20052;-60
2022/05/16 08:48:08;;;;;;;12.68;6.50;;;21.60;66.40;;;;;;5054192;28;20500;-60
2022/05/16 08:50:52;;;;;;;10.77;6.10;;;21.70;66.10;;;;;;5054921;28;20091;-60
2022/05/16 08:53:32;;;;;;;8.68;5.65;;;21.80;65.80;;;;;;5055344;28;20067;-60
2022/05/16 08:56:03;;;;;;;10.65;5.68;;;21.80;65.30;;;;;;5055138;28;20024;-60
2022/05/16 08:58:51;;;;;;;14.93;7.25;;;21.90;65.60;;;;;;5055510;28;20036;-59
2022/05/16 09:01:34;;;;;;;9.05;5.85;;;22.00;66.40;;;;;;5055195;28;20033;-60
2022/05/16 09:04:12;;;;;;;9.82;5.80;;;22.10;65.80;;;;;;5055063;28;20126;-60
2022/05/16 09:06:55;;;;;;;11.82;6.70;;;22.10;65.50;;;;;;5055339;28;20044;-60
2022/05/16 09:09:25;;;;;;;8.88;5.13;;;22.10;65.40;;;;;;5055164;28;20079;-60
2022/05/16 09:12:05;;;;;;;8.00;5.05;;;22.10;65.80;;;;;;5054895;28;20027;-60
2022/05/16 09:14:54;;;;;;;9.57;5.45;;;22.10;66.20;;;;;;5055083;28;20028;-60
2022/05/16 09:17:33;;;;;;;9.00;4.88;;;22.20;65.90;;;;;;5053851;28;20029;-59
2022/05/16 09:20:10;;;;;;;8.10;5.10;;;22.20;67.10;;;;;;5054980;28;20072;-60
2022/05/16 09:22:54;;;;;;;9.30;5.90;;;22.30;67.10;;;;;;5055180;28;20029;-60
2022/05/16 09:25:23;;;;;;;6.15;4.75;;;22.40;66.80;;;;;;5054864;28;20025;-60
2022/05/16 09:30:45;;;;;;;11.93;7.15;;;22.60;66.30;;;;;;5054802;28;20035;-60
2022/05/16 09:33:26;;;;;;;8.82;4.72;;;22.70;65.80;;;;;;5054687;28;20086;-60
2022/05/16 09:36:04;;;;;;;8.85;4.90;;;22.70;65.30;;;;;;5054611;28;20025;-60
2022/05/16 09:38:30;;;;;;;5.78;4.60;;;22.90;65.30;;;;;;5054475;28;20035;-60
2022/05/16 09:40:59;;;;;;;8.90;5.35;;;23.00;65.00;;;;;;5054469;28;20060;-60
2022/05/16 09:43:26;;;;;;;8.07;5.90;;;23.10;65.10;;;;;;5054265;28;20032;-60
2022/05/16 09:45:59;;;;;;;5.93;4.53;;;23.20;64.80;;;;;;5054347;28;20032;-60
2022/05/16 09:48:25;;;;;;;7.40;4.72;;;23.40;64.50;;;;;;5054335;28;20107;-60
2022/05/16 09:51:03;;;;;;;8.05;4.28;;;23.40;64.30;;;;;;5054222;28;20041;-60
2022/05/16 09:53:36;;;;;;;9.63;5.35;;;23.60;63.70;;;;;;5054255;28;20487;-60
2022/05/16 09:56:24;;;;;;;10.48;5.45;;;23.70;63.70;;;;;;5054221;28;20021;-60
2022/05/16 09:59:00;;;;;;;10.10;5.28;;;23.80;63.40;;;;;;5052054;28;20374;-61
2022/05/16 10:01:38;;;;;;;11.75;5.10;;;23.80;62.10;;;;;;5054037;28;20039;-60
2022/05/16 10:04:16;;;;;;;5.95;3.28;;;24.00;61.90;;;;;;5053738;28;20040;-60
2022/05/16 10:06:59;;;;;;;8.45;5.35;;;24.10;61.50;;;;;;5053014;28;20031;-60
2022/05/16 10:09:33;;;;;;;7.63;4.00;;;24.30;61.80;;;;;;5054012;28;20020;-60
2022/05/16 10:11:59;;;;;;;5.50;2.95;;;24.30;61.40;;;;;;5053914;28;20029;-60
2022/05/16 10:14:25;;;;;;;8.23;4.95;;;24.50;61.50;;;;;;5053608;28;20032;-60
2022/05/16 10:16:53;;;;;;;8.18;4.85;;;24.60;60.70;;;;;;5052123;28;20033;-60
2022/05/16 10:19:23;;;;;;;8.15;5.25;;;24.60;60.40;;;;;;5053911;28;20028;-60
2022/05/16 10:22:01;;;;;;;4.40;2.95;;;24.80;60.00;;;;;;5052641;28;20053;-60
2022/05/16 10:24:31;;;;;;;6.38;4.43;;;25.00;60.00;;;;;;5053514;28;20056;-60
2022/05/16 10:27:01;;;;;;;9.70;5.85;;;25.10;59.90;;;;;;5053661;28;20020;-60
2022/05/16 10:29:33;;;;;;;6.82;3.97;;;25.20;59.70;;;;;;5053305;28;20413;-60
2022/05/16 10:34:52;;;;;;;8.13;4.10;;;25.60;59.40;;;;;;5053602;28;20401;-60
2022/05/16 10:37:19;;;;;;;7.90;4.20;;;25.80;59.40;;;;;;5033826;28;20025;-60
2022/05/16 10:39:50;;;;;;;7.43;3.80;;;25.90;60.00;;;;;;5015777;28;20030;-60
2022/05/16 10:42:21;;;;;;;4.90;2.13;;;26.10;58.40;;;;;;5033304;28;20112;-60
2022/05/16 10:44:59;;;;;;;5.85;2.05;;;26.30;58.00;;;;;;5033235;28;20030;-61
2022/05/16 10:47:31;;;;;;;8.13;2.80;;;26.50;57.60;;;;;;5033338;28;20068;-60
2022/05/16 10:50:06;;;;;;;3.78;2.00;;;26.60;57.20;;;;;;5033741;28;20090;-60
2022/05/16 10:52:42;;;;;;;10.38;4.82;;;26.60;57.20;;;;;;5037709;28;20180;-60
2022/05/16 10:55:08;;;;;;;7.95;4.93;;;26.50;57.50;;;;;;5043166;28;20010;-60
2022/05/16 10:57:59;;;;;;;8.73;4.97;;;26.50;57.60;;;;;;5048829;28;20377;-60
2022/05/16 11:00:34;;;;;;;4.28;2.70;;;26.40;57.40;;;;;;5045698;28;20024;-60
2022/05/16 11:02:59;;;;;;;5.95;2.30;;;26.40;57.80;;;;;;5051011;28;20078;-60
2022/05/16 11:05:38;;;;;;;5.15;2.55;;;26.40;57.80;;;;;;5051109;28;20020;-61
2022/05/16 11:08:21;;;;;;;4.28;2.65;;;26.50;57.80;;;;;;5047667;28;20025;-60
2022/05/16 11:11:10;;;;;;;7.45;2.30;;;26.50;57.80;;;;;;5061307;28;20052;-61
2022/05/16 11:13:47;;;;;;;3.03;1.67;;;26.50;57.40;;;;;;5051278;28;20040;-61
2022/05/16 11:16:26;;;;;;;7.15;2.20;;;26.50;57.40;;;;;;5050888;28;20021;-61
2022/05/16 11:19:14;;;;;;;5.10;1.70;;;26.50;57.80;;;;;;5051625;28;20035;-61
2022/05/16 11:22:02;;;;;;;4.03;1.60;;;26.40;57.80;;;;;;5052811;28;20035;-61
2022/05/16 11:24:57;;;;;;;6.05;1.73;;;26.30;58.90;;;;;;5052570;28;20052;-60
2022/05/16 11:27:33;;;;;;;7.05;2.25;;;26.20;59.20;;;;;;5052574;28;20108;-60
2022/05/16 11:30:08;;;;;;;3.47;2.00;;;26.10;60.10;;;;;;5051396;28;20024;-60
2022/05/16 11:33:01;;;;;;;4.22;2.13;;;26.10;60.90;;;;;;5052473;28;20028;-60
2022/05/16 11:35:45;;;;;;;6.13;1.77;;;26.30;60.90;;;;;;5045424;28;20041;-60
2022/05/16 11:38:11;;;;;;;6.35;2.30;;;26.50;61.00;;;;;;5044764;28;20539;-60
2022/05/16 11:41:01;;;;;;;4.97;2.08;;;26.60;61.40;;;;;;5048033;28;20033;-60
2022/05/16 11:43:29;;;;;;;2.55;1.50;;;26.50;61.40;;;;;;5048870;28;20053;-60
2022/05/16 11:46:28;;;;;;;5.28;2.30;;;26.30;61.90;;;;;;5051901;28;20108;-60
2022/05/16 11:49:12;;;;;;;;;;;26.30;62.50;;;;;;5052634;28;20025;-61
2022/05/16 11:51:50;;;;;;;4.88;2.67;;;26.20;63.60;;;;;;5052183;28;19916;-60
2022/05/16 11:54:20;;;;;;;5.43;3.05;;;26.10;65.40;;;;;;5051967;28;20461;-61
2022/05/16 12:03:07;;;;;;;5.90;3.63;;;25.60;67.30;;;;;;5051900;28;20570;-60
2022/05/16 12:05:42;;;;;;;5.60;3.42;;;25.30;67.50;;;;;;5044867;28;20060;-60
2022/05/16 12:08:16;;;;;;;5.55;3.28;;;25.20;68.10;;;;;;5030877;28;20373;-60
2022/05/16 12:11:10;;;;;;;8.07;3.45;;;25.00;69.00;;;;;;5027204;28;20801;-60
2022/05/16 12:13:55;;;;;;;4.72;3.03;;;24.70;69.30;;;;;;5043593;28;20025;-60
2022/05/16 12:16:31;;;;;;;4.30;2.97;;;24.60;70.30;;;;;;5055817;28;20083;-60
2022/05/16 12:19:22;;;;;;;5.15;3.38;;;24.40;70.20;;;;;;5031011;28;20037;-60
2022/05/16 12:22:09;;;;;;;5.60;3.17;;;24.30;70.20;;;;;;5034621;28;20029;-60
2022/05/16 12:25:02;;;;;;;5.97;3.88;;;24.20;70.50;;;;;;5035902;28;20041;-60
2022/05/16 12:27:35;;;;;;;10.15;5.55;;;24.10;70.90;;;;;;5035316;28;20041;-60
2022/05/16 12:30:08;;;;;;;6.78;3.88;;;23.90;71.40;;;;;;5050486;28;20047;-60
2022/05/16 12:32:33;;;;;;;5.82;4.15;;;23.80;72.10;;;;;;5055830;28;20079;-60
2022/05/16 12:35:08;;;;;;;5.93;3.92;;;23.80;73.10;;;;;;5055691;28;20017;-60
2022/05/16 12:37:35;;;;;;;6.10;4.10;;;23.70;73.80;;;;;;5055864;28;20071;-60
2022/05/16 12:40:09;;;;;;;6.53;3.92;;;23.70;74.30;;;;;;5054771;28;20025;-60
2022/05/16 12:42:53;;;;;;;5.80;4.25;;;23.80;74.30;;;;;;5055686;28;20021;-60
2022/05/16 12:45:27;;;;;;;4.35;3.83;;;23.90;74.40;;;;;;5055592;28;20465;-60
2022/05/16 12:48:02;;;;;;;10.13;5.07;;;24.00;74.60;;;;;;5055464;28;20028;-60
2022/05/16 12:50:45;;;;;;;6.78;5.07;;;24.00;74.90;;;;;;5055167;28;20029;-60
2022/05/16 12:53:44;;;;;;;6.22;4.82;;;24.10;75.00;;;;;;5055516;28;20028;-60
2022/05/16 12:56:28;;;;;;;6.63;4.90;;;24.20;75.20;;;;;;5037553;28;20115;-60
2022/05/16 12:59:03;;;;;;;6.75;5.55;;;24.20;75.10;;;;;;5055394;28;20021;-60
2022/05/16 13:01:50;;;;;;;10.57;9.20;;;24.10;75.60;;;;;;5055136;28;20021;-60
2022/05/16 13:04:26;;;;;;;11.05;9.30;;;24.00;75.30;;;;;;5055108;28;20377;-60
2022/05/16 13:07:11;;;;;;;9.75;8.23;;;23.90;74.80;;;;;;5054220;28;20021;-60
2022/05/16 13:09:54;;;;;;;9.00;6.95;;;23.90;74.00;;;;;;5055002;28;20469;-60
2022/05/16 13:12:34;;;;;;;7.40;6.63;;;24.00;73.30;;;;;;5054627;28;20021;-60
2022/05/16 13:15:02;;;;;;;7.18;6.18;;;23.90;72.80;;;;;;5055088;28;20074;-61
2022/05/16 13:17:39;;;;;;;7.45;6.28;;;23.80;72.70;;;;;;5055017;28;20025;-60
2022/05/16 13:20:11;;;;;;;9.13;7.03;;;23.80;72.50;;;;;;5054972;28;20021;-60
2022/05/16 13:22:40;;;;;;;10.18;6.57;;;23.60;72.60;;;;;;5054956;28;20021;-60
2022/05/16 13:25:06;;;;;;;11.10;6.28;;;23.50;72.90;;;;;;5054569;28;20033;-60
2022/05/16 13:30:22;;;;;;;9.68;6.55;;;23.40;72.90;;;;;;5054599;28;20032;-60
2022/05/16 13:32:48;;;;;;;12.25;8.90;;;23.30;73.10;;;;;;5053485;28;20025;-60
2022/05/16 13:35:36;;;;;;;13.45;10.25;;;23.20;73.30;;;;;;5054549;28;20082;-60
2022/05/16 13:38:04;;;;;;;13.60;9.77;;;23.10;73.50;;;;;;5053031;28;20083;-60
2022/05/16 13:40:39;;;;;;;12.90;9.43;;;22.90;73.90;;;;;;5053288;28;20025;-60
2022/05/16 13:43:14;;;;;;;17.45;12.73;;;22.90;74.20;;;;;;5037403;28;20053;-60
2022/05/16 13:45:40;;;;;;;19.42;15.68;;;22.90;74.70;;;;;;5054650;28;20548;-60